sensor_id;sensor_type;location;lat;lon;timestamp;P1;durP1;ratioP1;P2;durP2;ratioP2
76689;SDS011;65623;44.498;0.166;2023-04-21T00:12:08;0.10;;;0.10;;
76689;SDS011;65623;44.498;0.166;2023-04-21T00:25:59;0.10;;;0.10;;
76689;SDS011;65623;44.498;0.166;2023-04-21T00:39:49;0.10;;;0.10;;
76689;SDS011;65623;44.498;0.166;2023-04-21T00:53:39;0.17;;;0.17;;
76689;SDS011;65623;44.498;0.166;2023-04-21T01:07:30;0.13;;;0.13;;
76689;SDS011;65623;44.498;0.166;2023-04-21T01:21:20;0.10;;;0.10;;
76689;SDS011;65623;44.498;0.166;2023-04-21T01:35:11;0.33;;;0.33;;
76689;SDS011;65623;44.498;0.166;2023-04-21T01:49:00;0.20;;;0.20;;
76689;SDS011;65623;44.498;0.166;2023-04-21T02:16:41;0.10;;;0.10;;
76689;SDS011;65623;44.498;0.166;2023-04-21T02:30:32;0.10;;;0.10;;
76689;SDS011;65623;44.498;0.166;2023-04-21T02:44:23;0.10;;;0.10;;
76689;SDS011;65623;44.498;0.166;2023-04-21T02:58:13;0.20;;;0.20;;
76689;SDS011;65623;44.498;0.166;2023-04-21T03:12:05;0.20;;;0.20;;
76689;SDS011;65623;44.498;0.166;2023-04-21T03:25:55;0.40;;;0.40;;
76689;SDS011;65623;44.498;0.166;2023-04-21T03:39:46;0.20;;;0.20;;
76689;SDS011;65623;44.498;0.166;2023-04-21T03:53:36;0.10;;;0.10;;
76689;SDS011;65623;44.498;0.166;2023-04-21T04:07:27;0.17;;;0.17;;
76689;SDS011;65623;44.498;0.166;2023-04-21T04:21:18;0.20;;;0.20;;
76689;SDS011;65623;44.498;0.166;2023-04-21T04:35:08;0.20;;;0.20;;
76689;SDS011;65623;44.498;0.166;2023-04-21T04:48:57;0.27;;;0.27;;
76689;SDS011;65623;44.498;0.166;2023-04-21T05:02:48;0.10;;;0.10;;
76689;SDS011;65623;44.498;0.166;2023-04-21T05:16:38;0.20;;;0.20;;
76689;SDS011;65623;44.498;0.166;2023-04-21T05:30:29;0.20;;;0.20;;
76689;SDS011;65623;44.498;0.166;2023-04-21T05:44:19;0.50;;;0.50;;
76689;SDS011;65623;44.498;0.166;2023-04-21T05:58:11;0.20;;;0.20;;
76689;SDS011;65623;44.498;0.166;2023-04-21T06:12:03;0.30;;;0.30;;
76689;SDS011;65623;44.498;0.166;2023-04-21T06:25:58;0.10;;;0.10;;
76689;SDS011;65623;44.498;0.166;2023-04-21T06:39:44;0.10;;;0.10;;
76689;SDS011;65623;44.498;0.166;2023-04-21T06:53:37;0.10;;;0.10;;
76689;SDS011;65623;44.498;0.166;2023-04-21T07:07:28;0.10;;;0.10;;
76689;SDS011;65623;44.498;0.166;2023-04-21T07:21:19;0.10;;;0.10;;
76689;SDS011;65623;44.498;0.166;2023-04-21T07:35:10;0.87;;;0.87;;
76689;SDS011;65623;44.498;0.166;2023-04-21T07:49:02;1.33;;;1.23;;
76689;SDS011;65623;44.498;0.166;2023-04-21T08:02:53;0.63;;;0.63;;
76689;SDS011;65623;44.498;0.166;2023-04-21T08:16:44;2.43;;;1.17;;
76689;SDS011;65623;44.498;0.166;2023-04-21T08:30:35;1.77;;;1.13;;
76689;SDS011;65623;44.498;0.166;2023-04-21T08:44:26;7.33;;;2.03;;
76689;SDS011;65623;44.498;0.166;2023-04-21T08:58:17;2.83;;;1.73;;
76689;SDS011;65623;44.498;0.166;2023-04-21T09:12:08;1.73;;;1.60;;
76689;SDS011;65623;44.498;0.166;2023-04-21T09:26:01;1.40;;;1.30;;
76689;SDS011;65623;44.498;0.166;2023-04-21T09:39:51;1.60;;;1.50;;
76689;SDS011;65623;44.498;0.166;2023-04-21T09:53:43;5.97;;;1.47;;
76689;SDS011;65623;44.498;0.166;2023-04-21T10:07:35;1.63;;;1.53;;
76689;SDS011;65623;44.498;0.166;2023-04-21T10:21:26;4.57;;;1.47;;
76689;SDS011;65623;44.498;0.166;2023-04-21T10:35:21;2.70;;;1.40;;
76689;SDS011;65623;44.498;0.166;2023-04-21T10:49:20;1.67;;;1.53;;
76689;SDS011;65623;44.498;0.166;2023-04-21T11:03:06;2.57;;;1.43;;
76689;SDS011;65623;44.498;0.166;2023-04-21T11:16:57;1.50;;;1.10;;
76689;SDS011;65623;44.498;0.166;2023-04-21T11:30:47;4.47;;;1.30;;
76689;SDS011;65623;44.498;0.166;2023-04-21T11:44:39;3.80;;;1.27;;
76689;SDS011;65623;44.498;0.166;2023-04-21T11:58:30;1.50;;;1.40;;
76689;SDS011;65623;44.498;0.166;2023-04-21T12:12:20;1.80;;;1.40;;
76689;SDS011;65623;44.498;0.166;2023-04-21T12:26:09;2.37;;;1.50;;
76689;SDS011;65623;44.498;0.166;2023-04-21T12:39:59;2.03;;;1.80;;
76689;SDS011;65623;44.498;0.166;2023-04-21T12:53:51;2.33;;;1.03;;
76689;SDS011;65623;44.498;0.166;2023-04-21T13:07:42;2.40;;;0.97;;
76689;SDS011;65623;44.498;0.166;2023-04-21T13:21:34;1.37;;;1.27;;
76689;SDS011;65623;44.498;0.166;2023-04-21T13:35:25;1.20;;;1.10;;
76689;SDS011;65623;44.498;0.166;2023-04-21T13:49:16;4.37;;;1.17;;
76689;SDS011;65623;44.498;0.166;2023-04-21T14:03:06;1.33;;;1.23;;
76689;SDS011;65623;44.498;0.166;2023-04-21T14:16:57;3.47;;;1.50;;
76689;SDS011;65623;44.498;0.166;2023-04-21T14:30:47;3.17;;;1.87;;
76689;SDS011;65623;44.498;0.166;2023-04-21T14:44:36;2.13;;;1.53;;
76689;SDS011;65623;44.498;0.166;2023-04-21T14:58:27;1.67;;;1.57;;
76689;SDS011;65623;44.498;0.166;2023-04-21T15:12:18;5.43;;;2.20;;
76689;SDS011;65623;44.498;0.166;2023-04-21T15:26:08;2.70;;;1.70;;
76689;SDS011;65623;44.498;0.166;2023-04-21T15:39:57;1.83;;;1.60;;
76689;SDS011;65623;44.498;0.166;2023-04-21T15:53:44;4.13;;;1.97;;
76689;SDS011;65623;44.498;0.166;2023-04-21T16:07:32;2.27;;;2.07;;
76689;SDS011;65623;44.498;0.166;2023-04-21T16:21:22;2.47;;;2.10;;
76689;SDS011;65623;44.498;0.166;2023-04-21T16:35:11;7.03;;;4.43;;
76689;SDS011;65623;44.498;0.166;2023-04-21T16:49:00;8.57;;;3.60;;
76689;SDS011;65623;44.498;0.166;2023-04-21T17:02:50;6.43;;;2.47;;
76689;SDS011;65623;44.498;0.166;2023-04-21T17:16:39;2.17;;;2.00;;
76689;SDS011;65623;44.498;0.166;2023-04-21T17:30:28;3.13;;;2.30;;
76689;SDS011;65623;44.498;0.166;2023-04-21T17:44:18;9.00;;;2.20;;
76689;SDS011;65623;44.498;0.166;2023-04-21T17:58:08;2.90;;;2.60;;
76689;SDS011;65623;44.498;0.166;2023-04-21T18:11:58;5.07;;;2.20;;
76689;SDS011;65623;44.498;0.166;2023-04-21T18:25:49;5.33;;;2.57;;
76689;SDS011;65623;44.498;0.166;2023-04-21T18:39:38;7.07;;;2.73;;
76689;SDS011;65623;44.498;0.166;2023-04-21T18:53:29;4.07;;;1.83;;
76689;SDS011;65623;44.498;0.166;2023-04-21T19:07:18;5.50;;;2.23;;
76689;SDS011;65623;44.498;0.166;2023-04-21T19:21:09;3.53;;;2.40;;
76689;SDS011;65623;44.498;0.166;2023-04-21T19:34:58;4.67;;;2.20;;
76689;SDS011;65623;44.498;0.166;2023-04-21T19:48:48;4.00;;;1.87;;
76689;SDS011;65623;44.498;0.166;2023-04-21T20:02:40;11.77;;;4.33;;
76689;SDS011;65623;44.498;0.166;2023-04-21T20:16:33;2.20;;;1.80;;
76689;SDS011;65623;44.498;0.166;2023-04-21T20:30:19;3.10;;;2.70;;
76689;SDS011;65623;44.498;0.166;2023-04-21T20:44:09;8.37;;;2.37;;
76689;SDS011;65623;44.498;0.166;2023-04-21T20:57:59;5.03;;;2.53;;
76689;SDS011;65623;44.498;0.166;2023-04-21T21:11:49;6.67;;;3.53;;
76689;SDS011;65623;44.498;0.166;2023-04-21T21:25:39;7.10;;;3.23;;
76689;SDS011;65623;44.498;0.166;2023-04-21T21:39:29;3.63;;;3.03;;
76689;SDS011;65623;44.498;0.166;2023-04-21T21:53:20;3.60;;;1.97;;
76689;SDS011;65623;44.498;0.166;2023-04-21T22:07:10;3.37;;;2.43;;
76689;SDS011;65623;44.498;0.166;2023-04-21T22:21:00;5.10;;;3.97;;
76689;SDS011;65623;44.498;0.166;2023-04-21T22:34:51;13.03;;;4.60;;
76689;SDS011;65623;44.498;0.166;2023-04-21T22:48:41;2.97;;;2.07;;
76689;SDS011;65623;44.498;0.166;2023-04-21T23:02:31;7.03;;;3.43;;
76689;SDS011;65623;44.498;0.166;2023-04-21T23:16:22;7.10;;;1.97;;
76689;SDS011;65623;44.498;0.166;2023-04-21T23:30:12;1.10;;;1.07;;
76689;SDS011;65623;44.498;0.166;2023-04-21T23:44:02;2.07;;;1.93;;
76689;SDS011;65623;44.498;0.166;2023-04-21T23:57:51;2.63;;;2.37;;
